createdAt,value
2023-11-07T00:00:42.232Z,11.66
2023-11-07T00:03:12.529Z,11.66
2023-11-07T00:05:40.378Z,11.75
2023-11-07T00:08:07.849Z,11.61
2023-11-07T00:10:39.298Z,11.64
2023-11-07T00:13:07.691Z,11.86
2023-11-07T00:15:36.385Z,11.83
2023-11-07T00:18:03.850Z,11.53
2023-11-07T00:20:32.837Z,11.98
2023-11-07T00:23:00.582Z,11.82
2023-11-07T00:25:28.059Z,12.09
2023-11-07T00:27:55.166Z,12.10
2023-11-07T00:30:23.439Z,12.17
2023-11-07T00:32:53.891Z,12.33
2023-11-07T00:35:21.162Z,12.19
2023-11-07T00:37:48.353Z,12.23
2023-11-07T00:40:15.899Z,12.07
2023-11-07T00:42:43.745Z,11.53
2023-11-07T00:45:12.216Z,11.13
2023-11-07T00:47:39.616Z,10.67
2023-11-07T00:50:11.814Z,10.45
2023-11-07T00:52:39.893Z,10.60
2023-11-07T00:55:09.464Z,10.55
2023-11-07T00:57:37.796Z,10.47
2023-11-07T01:00:10.573Z,10.61
2023-11-07T01:02:40.643Z,10.99
2023-11-07T01:05:09.197Z,11.20
2023-11-07T01:07:38.222Z,11.34
2023-11-07T01:10:05.839Z,11.28
2023-11-07T01:12:33.791Z,10.87
2023-11-07T01:15:01.080Z,11.15
2023-11-07T01:17:29.846Z,11.36
2023-11-07T01:19:57.443Z,11.26
2023-11-07T01:22:26.956Z,11.35
2023-11-07T01:24:54.919Z,11.52
2023-11-07T01:27:22.421Z,11.43
2023-11-07T01:29:51.157Z,11.30
2023-11-07T01:32:20.681Z,11.53
2023-11-07T01:34:49.368Z,11.58
2023-11-07T01:37:17.676Z,11.57
2023-11-07T01:39:45.274Z,11.35
2023-11-07T01:42:13.980Z,11.04
2023-11-07T01:44:51.265Z,10.97
2023-11-07T01:47:24.879Z,10.86
2023-11-07T01:49:52.942Z,10.60
2023-11-07T01:52:21.528Z,10.54
2023-11-07T01:54:54.842Z,10.72
2023-11-07T01:57:23.824Z,10.47
2023-11-07T01:59:54.361Z,10.61
2023-11-07T02:02:23.912Z,10.71
2023-11-07T02:04:51.555Z,10.64
2023-11-07T02:07:19.621Z,10.82
2023-11-07T02:09:47.019Z,10.71
2023-11-07T02:12:14.618Z,10.57
2023-11-07T02:14:42.688Z,10.25
2023-11-07T02:17:11.098Z,10.25
2023-11-07T02:19:40.435Z,10.27
2023-11-07T02:22:27.583Z,10.13
2023-11-07T02:24:54.655Z,10.06
2023-11-07T02:27:23.683Z,10.12
2023-11-07T02:29:51.771Z,10.14
2023-11-07T02:32:23.930Z,9.99
2023-11-07T02:34:55.043Z,10.13
2023-11-07T02:37:22.469Z,10.15
2023-11-07T02:39:50.357Z,10.17
2023-11-07T02:42:18.428Z,10.24
2023-11-07T02:44:46.019Z,10.11
2023-11-07T02:47:14.216Z,10.16
2023-11-07T02:49:41.402Z,10.35
2023-11-07T02:52:08.732Z,10.23
2023-11-07T02:54:36.158Z,10.30
2023-11-07T02:57:04.559Z,10.37
2023-11-07T02:59:32.952Z,10.31
2023-11-07T03:02:04.771Z,10.29
2023-11-07T03:04:33.990Z,10.30
2023-11-07T03:07:02.061Z,10.28
2023-11-07T03:09:29.335Z,10.28
2023-11-07T03:11:56.603Z,10.30
2023-11-07T03:14:24.282Z,10.30
2023-11-07T03:16:53.254Z,10.23
2023-11-07T03:19:20.496Z,10.37
2023-11-07T03:21:47.606Z,10.48
2023-11-07T03:24:16.396Z,10.44
2023-11-07T03:26:45.427Z,10.39
2023-11-07T03:29:13.013Z,10.45
2023-11-07T03:31:41.396Z,10.44
2023-11-07T03:34:10.557Z,10.64
2023-11-07T03:36:39.904Z,10.54
2023-11-07T03:39:07.828Z,10.45
2023-11-07T03:41:35.498Z,10.72
2023-11-07T03:44:02.838Z,10.53
2023-11-07T03:46:31.446Z,10.58
2023-11-07T03:48:59.631Z,10.53
2023-11-07T03:51:27.307Z,10.24
2023-11-07T03:53:55.584Z,10.19
2023-11-07T03:56:24.129Z,9.79
2023-11-07T03:58:53.525Z,9.78
2023-11-07T04:01:20.743Z,9.60
2023-11-07T04:03:49.077Z,9.75
2023-11-07T04:06:16.647Z,9.67
2023-11-07T04:08:44.006Z,9.46
2023-11-07T04:11:11.422Z,8.97
2023-11-07T04:13:38.601Z,9.43
2023-11-07T04:16:07.354Z,9.72
2023-11-07T04:18:34.903Z,9.75
2023-11-07T04:21:05.571Z,9.96
2023-11-07T04:23:33.389Z,9.89
2023-11-07T04:26:02.813Z,9.53
2023-11-07T04:28:32.409Z,10.02
2023-11-07T04:31:00.849Z,10.02
2023-11-07T04:33:29.030Z,10.09
2023-11-07T04:35:56.340Z,10.05
2023-11-07T04:38:23.634Z,10.01
2023-11-07T04:40:50.776Z,10.10
2023-11-07T04:43:17.855Z,9.90
2023-11-07T04:45:45.022Z,9.89
2023-11-07T04:48:13.599Z,10.03
2023-11-07T04:50:41.777Z,9.72
2023-11-07T04:53:14.429Z,9.61
2023-11-07T04:55:42.980Z,9.53
2023-11-07T04:58:11.592Z,9.64
2023-11-07T05:00:39.983Z,9.53
2023-11-07T05:03:07.807Z,9.51
2023-11-07T05:05:36.615Z,9.62
2023-11-07T05:08:04.843Z,9.55
2023-11-07T05:10:37.729Z,9.75
2023-11-07T05:13:08.694Z,9.47
2023-11-07T05:15:46.529Z,9.71
2023-11-07T05:18:16.996Z,9.71
2023-11-07T05:20:45.929Z,9.80
2023-11-07T05:23:14.895Z,9.91
2023-11-07T05:25:48.684Z,9.79
2023-11-07T05:28:19.985Z,9.97
2023-11-07T05:30:47.319Z,9.91
2023-11-07T05:33:14.782Z,10.05
2023-11-07T05:35:47.929Z,10.08
2023-11-07T05:38:16.873Z,10.19
2023-11-07T05:40:44.740Z,10.34
2023-11-07T05:43:13.551Z,10.67
2023-11-07T05:45:42.854Z,10.60
2023-11-07T05:48:10.159Z,10.88
2023-11-07T05:50:38.684Z,10.94
2023-11-07T05:53:07.045Z,10.96
2023-11-07T05:55:35.224Z,11.10
2023-11-07T05:58:02.485Z,11.21
2023-11-07T06:00:30.119Z,11.18
2023-11-07T06:02:57.731Z,11.37
2023-11-07T06:05:25.061Z,11.29
2023-11-07T06:07:57.309Z,11.35
2023-11-07T06:10:27.396Z,11.63
2023-11-07T06:12:54.468Z,11.63
2023-11-07T06:15:22.072Z,11.73
2023-11-07T06:17:49.451Z,11.67
2023-11-07T06:20:19.767Z,11.37
2023-11-07T06:22:47.562Z,11.93
2023-11-07T06:25:17.999Z,12.12
2023-11-07T06:27:45.276Z,12.03
2023-11-07T06:30:14.065Z,12.13
2023-11-07T06:32:41.556Z,12.08
2023-11-07T06:35:11.246Z,12.02
2023-11-07T06:37:43.909Z,12.10
2023-11-07T06:40:17.382Z,12.23
2023-11-07T06:42:48.633Z,12.26
2023-11-07T06:45:21.373Z,12.48
2023-11-07T06:47:53.843Z,12.56
2023-11-07T06:50:24.082Z,12.46
2023-11-07T06:52:57.169Z,12.33
2023-11-07T06:55:41.340Z,12.51
2023-11-07T06:58:13.064Z,12.83
2023-11-07T07:01:13.395Z,12.84
2023-11-07T07:03:47.475Z,13.22
2023-11-07T07:06:17.610Z,13.41
2023-11-07T07:08:44.923Z,13.47
2023-11-07T07:11:15.904Z,13.61
2023-11-07T07:13:43.253Z,13.69
2023-11-07T07:16:15.027Z,13.91
2023-11-07T07:18:44.060Z,14.04
2023-11-07T07:21:12.502Z,14.25
2023-11-07T07:23:48.847Z,14.06
2023-11-07T07:26:20.138Z,14.37
2023-11-07T07:28:48.231Z,14.29
2023-11-07T07:31:21.324Z,14.24
2023-11-07T07:33:48.598Z,14.60
2023-11-07T07:36:19.543Z,14.55
2023-11-07T07:39:38.634Z,14.79
2023-11-07T07:42:15.442Z,14.53
2023-11-07T07:44:55.236Z,14.96
2023-11-07T07:47:26.432Z,15.06
2023-11-07T07:49:56.307Z,15.38
2023-11-07T07:52:25.155Z,15.41
2023-11-07T07:55:07.129Z,15.40
2023-11-07T07:57:43.442Z,15.43
2023-11-07T08:00:26.025Z,15.50
2023-11-07T08:02:58.877Z,15.66
2023-11-07T08:05:32.911Z,15.62
2023-11-07T08:08:02.801Z,15.75
2023-11-07T08:10:30.514Z,15.89
2023-11-07T08:13:02.993Z,16.17
2023-11-07T08:15:31.966Z,16.07
2023-11-07T08:18:09.785Z,16.28
2023-11-07T08:20:46.545Z,16.46
2023-11-07T08:23:35.035Z,16.41
2023-11-07T08:26:11.611Z,16.40
2023-11-07T08:28:44.980Z,16.44
2023-11-07T08:31:15.717Z,16.65
2023-11-07T08:33:45.568Z,16.50
2023-11-07T08:36:15.681Z,16.65
2023-11-07T08:38:47.617Z,16.78
2023-11-07T08:41:21.710Z,16.91
2023-11-07T08:43:50.550Z,17.03
2023-11-07T08:46:39.102Z,17.23
2023-11-07T08:49:36.870Z,17.34
2023-11-07T08:52:13.896Z,17.46
2023-11-07T08:54:44.395Z,17.61
2023-11-07T08:57:12.947Z,17.56
2023-11-07T08:59:46.809Z,17.49
2023-11-07T09:02:17.811Z,17.96
2023-11-07T09:07:36.871Z,18.09
2023-11-07T09:10:04.566Z,18.16
2023-11-07T09:12:33.487Z,18.03
2023-11-07T09:15:06.892Z,18.06
2023-11-07T09:17:40.182Z,17.84
2023-11-07T09:20:13.491Z,17.59
2023-11-07T09:22:43.600Z,18.24
2023-11-07T09:25:19.021Z,18.19
2023-11-07T09:28:01.774Z,18.21
2023-11-07T09:30:49.471Z,18.06
2023-11-07T09:33:17.854Z,17.79
2023-11-07T09:35:44.998Z,17.72
2023-11-07T09:38:12.604Z,18.04
2023-11-07T09:40:45.695Z,18.30
2023-11-07T09:43:13.745Z,18.27
2023-11-07T09:45:42.456Z,18.04
2023-11-07T09:48:12.129Z,18.29
2023-11-07T09:50:47.812Z,18.47
2023-11-07T09:53:19.160Z,18.54
2023-11-07T09:55:51.077Z,18.60
2023-11-07T09:58:29.620Z,18.67
2023-11-07T10:01:01.062Z,18.65
2023-11-07T10:03:33.067Z,18.44
2023-11-07T10:06:04.929Z,18.64
2023-11-07T10:08:35.747Z,18.62
2023-11-07T10:11:17.651Z,18.69
2023-11-07T10:14:04.553Z,18.81
2023-11-07T10:16:43.747Z,18.86
2023-11-07T10:19:17.896Z,19.21
2023-11-07T10:21:48.394Z,19.19
2023-11-07T10:24:18.435Z,19.30
2023-11-07T10:27:00.548Z,19.08
2023-11-07T10:29:38.250Z,18.86
2023-11-07T10:32:16.914Z,18.85
2023-11-07T10:34:45.938Z,19.29
2023-11-07T10:37:13.200Z,19.38
2023-11-07T10:39:41.469Z,19.35
2023-11-07T10:42:21.033Z,19.09
2023-11-07T10:45:02.272Z,19.15
2023-11-07T10:47:47.235Z,19.70
2023-11-07T10:50:18.958Z,19.62
2023-11-07T10:52:49.436Z,19.64
2023-11-07T10:55:19.806Z,19.76
2023-11-07T10:57:59.511Z,19.96
2023-11-07T11:01:03.432Z,20.01
2023-11-07T11:04:10.544Z,20.18
2023-11-07T11:06:43.296Z,20.15
2023-11-07T11:09:12.409Z,20.28
2023-11-07T11:11:43.225Z,20.13
2023-11-07T11:14:10.944Z,20.37
2023-11-07T11:16:42.400Z,20.21
2023-11-07T11:19:55.168Z,20.26
2023-11-07T11:22:43.677Z,20.35
2023-11-07T11:25:38.423Z,19.84
2023-11-07T11:28:06.927Z,20.17
2023-11-07T11:30:40.144Z,20.35
2023-11-07T11:33:16.082Z,20.50
2023-11-07T11:35:47.984Z,20.35
2023-11-07T11:38:17.768Z,20.61
2023-11-07T11:41:05.628Z,20.17
2023-11-07T11:43:43.562Z,20.46
2023-11-07T11:46:14.766Z,20.53
2023-11-07T11:48:52.483Z,20.66
2023-11-07T11:52:16.728Z,20.84
2023-11-07T12:04:41.960Z,20.78
2023-11-07T12:07:33.919Z,20.83
2023-11-07T12:10:08.191Z,20.54
2023-11-07T12:12:39.102Z,20.66
2023-11-07T12:15:24.373Z,20.55
2023-11-07T12:17:53.432Z,20.69
2023-11-07T12:20:21.122Z,20.85
2023-11-07T12:22:52.413Z,21.00
2023-11-07T12:25:23.541Z,20.93
2023-11-07T12:28:07.899Z,20.78
2023-11-07T12:30:40.555Z,20.78
2023-11-07T12:33:11.064Z,20.80
2023-11-07T12:35:42.120Z,20.79
2023-11-07T12:38:11.904Z,21.04
2023-11-07T12:40:41.589Z,20.68
2023-11-07T12:43:10.098Z,20.79
2023-11-07T12:45:41.087Z,20.43
2023-11-07T12:48:12.160Z,20.64
2023-11-07T12:50:45.621Z,20.82
2023-11-07T12:53:19.406Z,20.98
2023-11-07T12:55:55.986Z,21.01
2023-11-07T12:58:31.715Z,20.78
2023-11-07T13:01:02.125Z,20.93
2023-11-07T13:03:35.183Z,20.73
2023-11-07T13:06:45.912Z,20.86
2023-11-07T13:09:33.530Z,20.83
2023-11-07T13:15:32.660Z,20.90
2023-11-07T13:18:26.373Z,20.99
2023-11-07T13:21:21.721Z,20.89
2023-11-07T13:23:55.304Z,21.00
2023-11-07T13:26:35.019Z,20.92
2023-11-07T13:29:07.555Z,20.95
2023-11-07T13:31:37.267Z,21.08
2023-11-07T13:34:07.060Z,21.10
2023-11-07T13:36:36.378Z,20.74
2023-11-07T13:39:06.516Z,20.89
2023-11-07T13:41:37.861Z,20.86
2023-11-07T13:44:07.936Z,20.90
2023-11-07T13:46:38.460Z,20.95
2023-11-07T13:49:10.553Z,20.77
2023-11-07T13:51:42.713Z,20.81
2023-11-07T13:54:11.015Z,20.80
2023-11-07T13:56:42.149Z,20.98
2023-11-07T13:59:10.154Z,20.90
2023-11-07T14:01:41.908Z,20.92
2023-11-07T14:04:10.936Z,20.85
2023-11-07T14:06:39.885Z,20.87
2023-11-07T14:09:11.308Z,20.69
2023-11-07T14:11:43.828Z,20.74
2023-11-07T14:14:13.110Z,20.76
2023-11-07T14:16:49.577Z,20.67
2023-11-07T14:19:19.536Z,20.52
2023-11-07T14:21:48.636Z,20.41
2023-11-07T14:24:18.240Z,20.50
2023-11-07T14:26:46.337Z,20.43
2023-11-07T14:31:47.140Z,20.30
2023-11-07T14:34:15.811Z,20.18
2023-11-07T14:36:44.688Z,19.74
2023-11-07T14:39:14.144Z,20.08
2023-11-07T14:41:44.381Z,19.82
2023-11-07T14:44:16.553Z,19.79
2023-11-07T14:46:47.483Z,19.64
2023-11-07T14:49:18.968Z,19.57
2023-11-07T14:51:48.067Z,19.47
2023-11-07T14:54:15.554Z,19.49
2023-11-07T15:00:10.712Z,19.46
2023-11-07T15:02:39.837Z,19.52
2023-11-07T15:05:13.592Z,19.62
2023-11-07T15:13:43.244Z,19.28
2023-11-07T15:16:12.247Z,19.15
2023-11-07T15:18:44.026Z,19.19
2023-11-07T15:21:13.001Z,19.34
2023-11-07T15:23:41.193Z,19.12
2023-11-07T15:26:09.920Z,18.93
2023-11-07T15:28:40.813Z,18.89
2023-11-07T15:31:08.539Z,18.88
2023-11-07T15:33:49.178Z,18.89
2023-11-07T15:36:20.267Z,18.91
2023-11-07T15:38:50.862Z,18.84
2023-11-07T15:41:18.978Z,18.76
2023-11-07T15:43:57.984Z,18.90
2023-11-07T15:46:27.382Z,18.71
2023-11-07T15:48:55.020Z,18.66
2023-11-07T15:51:24.585Z,18.61
2023-11-07T15:53:55.126Z,18.56
2023-11-07T15:56:23.056Z,18.48
2023-11-07T15:58:50.153Z,18.45
2023-11-07T16:01:19.203Z,18.39
2023-11-07T16:03:48.092Z,18.27
2023-11-07T16:06:21.066Z,18.20
2023-11-07T16:08:50.576Z,18.27
2023-11-07T16:11:18.004Z,18.20
2023-11-07T16:13:46.211Z,18.14
2023-11-07T16:16:14.636Z,17.98
2023-11-07T16:18:42.032Z,17.92
2023-11-07T16:21:10.300Z,17.85
2023-11-07T16:23:37.349Z,17.86
2023-11-07T16:26:05.508Z,17.88
2023-11-07T16:28:32.589Z,17.87
2023-11-07T16:31:00.782Z,17.93
2023-11-07T16:33:28.684Z,17.86
2023-11-07T16:36:07.431Z,17.91
2023-11-07T16:38:34.682Z,17.88
2023-11-07T16:41:02.016Z,17.74
2023-11-07T16:54:03.770Z,17.86
2023-11-07T16:56:32.095Z,18.01
2023-11-07T16:59:00.563Z,18.17
2023-11-07T17:01:31.742Z,18.00
2023-11-07T17:03:59.319Z,18.16
2023-11-07T17:23:13.693Z,17.38
2023-11-07T17:25:46.073Z,17.41
2023-11-07T17:28:13.848Z,17.62
2023-11-07T17:30:44.516Z,17.10
2023-11-07T17:33:13.517Z,17.25
2023-11-07T17:35:43.532Z,17.00
2023-11-07T17:38:15.404Z,17.15
2023-11-07T17:40:43.002Z,17.22
2023-11-07T17:46:41.146Z,17.35
2023-11-07T17:49:13.039Z,17.37
2023-11-07T17:51:44.953Z,17.42
2023-11-07T17:54:19.406Z,17.42
2023-11-07T17:56:46.931Z,17.31
2023-11-07T17:59:16.026Z,17.16
2023-11-07T18:01:49.823Z,16.96
2023-11-07T18:04:17.027Z,17.05
2023-11-07T18:06:49.265Z,16.97
2023-11-07T18:09:16.786Z,16.79
2023-11-07T18:11:48.487Z,16.53
2023-11-07T18:14:18.128Z,16.50
2023-11-07T18:16:47.693Z,16.70
2023-11-07T18:19:15.384Z,16.63
2023-11-07T18:21:46.218Z,16.67
2023-11-07T18:24:13.449Z,16.83
2023-11-07T18:26:47.605Z,16.81
2023-11-07T18:29:17.510Z,16.91
2023-11-07T18:31:49.569Z,16.57
2023-11-07T18:34:23.256Z,16.76
2023-11-07T18:37:08.434Z,16.93
2023-11-07T18:39:37.579Z,17.07
2023-11-07T18:42:05.398Z,16.93
2023-11-07T18:44:37.049Z,17.04
2023-11-07T18:47:05.218Z,17.09
2023-11-07T18:49:36.987Z,16.92
2023-11-07T18:52:06.390Z,16.90
2023-11-07T18:54:34.798Z,16.87
2023-11-07T18:57:16.178Z,16.75
2023-11-07T18:59:44.691Z,16.53
2023-11-07T19:02:14.780Z,16.42
2023-11-07T19:04:44.500Z,16.54
2023-11-07T19:07:13.886Z,16.50
2023-11-07T19:09:42.178Z,16.35
2023-11-07T19:12:09.665Z,16.53
2023-11-07T19:14:42.380Z,16.43
2023-11-07T19:17:15.447Z,16.19
2023-11-07T19:19:43.558Z,15.87
2023-11-07T19:22:19.531Z,15.70
2023-11-07T19:24:59.168Z,15.58
2023-11-07T19:27:27.034Z,15.63
2023-11-07T19:29:56.327Z,15.72
2023-11-07T19:33:22.198Z,14.55
2023-11-07T19:35:50.873Z,15.51
2023-11-07T19:38:20.021Z,15.63
2023-11-07T19:45:12.185Z,15.89
2023-11-07T19:47:39.873Z,15.62
2023-11-07T19:50:13.123Z,15.76
2023-11-07T19:52:46.165Z,15.70
2023-11-07T19:55:16.217Z,15.46
2023-11-07T19:57:45.048Z,15.56
2023-11-07T20:00:25.311Z,15.71
2023-11-07T20:02:54.143Z,15.55
2023-11-07T20:05:24.783Z,15.84
2023-11-07T20:07:57.086Z,15.82
2023-11-07T20:10:27.333Z,15.70
2023-11-07T20:12:54.401Z,15.81
2023-11-07T20:15:21.675Z,15.63
2023-11-07T20:18:41.051Z,15.26
2023-11-07T20:21:08.455Z,15.16
2023-11-07T20:23:36.245Z,15.13
2023-11-07T20:26:06.478Z,15.05
2023-11-07T20:28:34.772Z,14.95
2023-11-07T20:31:04.980Z,15.05
2023-11-07T20:33:41.584Z,15.23
2023-11-07T20:36:20.613Z,15.10
2023-11-07T20:38:54.218Z,14.84
2023-11-07T20:41:22.250Z,14.57
2023-11-07T20:43:51.423Z,14.40
2023-11-07T20:46:33.049Z,14.43
2023-11-07T20:49:05.083Z,13.99
2023-11-07T20:51:33.497Z,14.27
2023-11-07T20:54:05.217Z,14.26
2023-11-07T20:56:36.098Z,14.30
2023-11-07T20:59:04.393Z,14.36
2023-11-07T21:01:32.543Z,14.53
2023-11-07T21:04:01.300Z,14.60
2023-11-07T21:06:29.234Z,14.80
2023-11-07T21:08:57.011Z,14.83
2023-11-07T21:11:24.254Z,14.81
2023-11-07T21:13:52.710Z,14.75
2023-11-07T21:16:21.047Z,14.85
2023-11-07T21:18:50.574Z,14.96
2023-11-07T21:21:18.180Z,14.73
2023-11-07T21:23:46.351Z,14.32
2023-11-07T21:26:15.221Z,14.26
2023-11-07T21:28:45.958Z,14.21
2023-11-07T21:31:13.990Z,14.20
2023-11-07T21:33:42.362Z,14.25
2023-11-07T21:36:10.602Z,14.41
2023-11-07T21:38:40.167Z,14.37
2023-11-07T21:41:07.535Z,14.56
2023-11-07T21:43:34.797Z,14.69
2023-11-07T21:46:01.852Z,14.25
2023-11-07T21:48:29.398Z,14.16
2023-11-07T21:50:59.009Z,14.07
2023-11-07T21:53:28.851Z,14.18
2023-11-07T21:56:00.146Z,14.19
2023-11-07T21:58:31.821Z,14.17
2023-11-07T22:00:59.114Z,14.08
2023-11-07T22:03:28.162Z,13.44
2023-11-07T22:05:56.538Z,13.80
2023-11-07T22:08:26.915Z,13.87
2023-11-07T22:10:56.017Z,13.95
2023-11-07T22:13:27.927Z,14.35
2023-11-07T22:16:00.417Z,14.17
2023-11-07T22:18:30.027Z,13.70
2023-11-07T22:20:58.378Z,13.79
2023-11-07T22:23:25.387Z,13.27
2023-11-07T22:25:52.811Z,13.44
2023-11-07T22:28:21.894Z,13.58
2023-11-07T22:30:53.904Z,13.35
2023-11-07T22:33:26.273Z,13.22
2023-11-07T22:35:57.189Z,13.34
2023-11-07T22:38:25.853Z,13.61
2023-11-07T22:40:54.980Z,13.67
2023-11-07T22:43:24.592Z,13.90
2023-11-07T22:45:52.370Z,13.97
2023-11-07T22:48:23.391Z,13.90
2023-11-07T22:50:53.586Z,13.80
2023-11-07T22:53:21.892Z,13.47
2023-11-07T22:55:59.776Z,12.97
2023-11-07T22:58:28.902Z,13.48
2023-11-07T23:00:57.581Z,13.50
2023-11-07T23:03:27.080Z,13.22
2023-11-07T23:05:56.719Z,12.91
2023-11-07T23:08:24.022Z,12.98
2023-11-07T23:10:51.882Z,12.95
2023-11-07T23:13:23.943Z,13.04
2023-11-07T23:15:55.490Z,13.00
2023-11-07T23:18:23.447Z,12.95
2023-11-07T23:20:56.422Z,12.79
2023-11-07T23:23:27.178Z,12.67
2023-11-07T23:25:54.350Z,12.71
2023-11-07T23:28:22.043Z,12.40
2023-11-07T23:30:50.423Z,12.46
2023-11-07T23:33:20.015Z,12.41
2023-11-07T23:35:47.517Z,12.51
2023-11-07T23:38:19.471Z,12.33
2023-11-07T23:40:48.523Z,12.58
2023-11-07T23:43:17.394Z,12.49
2023-11-07T23:45:46.177Z,12.32
2023-11-07T23:48:13.658Z,12.53
2023-11-07T23:50:42.268Z,12.50
2023-11-07T23:53:11.410Z,12.64
2023-11-07T23:55:41.090Z,12.85
2023-11-07T23:58:08.122Z,13.10
